Time;durP1;ratioP1;P1;durP2;ratioP2;P2;SDS_P1;SDS_P2;PMS_P1;PMS_P2;Temp;Humidity;BMP_temperature;BMP_pressure;BME280_temperature;BME280_humidity;BME280_pressure;Samples;Min_cycle;Max_cycle;Signal;HPM_P1;HPM_P2
2021/03/07 00:02:06;;;;;;;13.67;12.33;;;-1.80;99.90;;;-1.23;66.03;98891.88;5223475;28;20217;-58
2021/03/07 00:04:39;;;;;;;13.73;12.37;;;-1.90;99.90;;;-1.20;65.51;98891.34;5205517;28;20204;-57
2021/03/07 00:07:11;;;;;;;13.37;12.13;;;-1.80;99.90;;;-1.15;66.25;98885.22;5206069;28;20202;-58
2021/03/07 00:09:43;;;;;;;13.87;12.47;;;-1.80;99.90;;;-1.17;65.45;98881.66;5206987;28;20194;-55
2021/03/07 00:12:15;;;;;;;13.50;12.10;;;-1.80;99.90;;;-1.15;64.74;98880.22;5223119;28;20711;-58
2021/03/07 00:14:47;;;;;;;13.50;12.17;;;-1.80;99.90;;;-1.08;64.86;98882.75;5213064;28;20204;-56
2021/03/07 00:17:19;;;;;;;12.43;11.20;;;-1.80;99.90;;;-1.15;66.09;98875.19;5193716;28;20666;-58
2021/03/07 00:19:52;;;;;;;12.63;11.40;;;-1.80;99.90;;;-1.17;65.43;98885.06;5210656;28;20587;-60
2021/03/07 00:22:24;;;;;;;12.93;11.63;;;-1.80;99.90;;;-1.22;66.68;98872.69;5226288;28;20296;-58
2021/03/07 00:24:56;;;;;;;13.57;12.27;;;-1.90;99.90;;;-1.24;66.32;98876.63;5223003;28;20197;-57
2021/03/07 00:27:28;;;;;;;12.97;11.67;;;-1.90;99.90;;;-1.25;65.33;98877.34;5222394;28;20292;-57
2021/03/07 00:30:00;;;;;;;13.67;12.37;;;-1.90;99.90;;;-1.27;66.22;98871.25;5226025;28;20308;-56
2021/03/07 00:32:33;;;;;;;13.10;11.73;;;-1.90;99.90;;;-1.31;66.78;98874.13;5225030;28;20220;-56
2021/03/07 00:35:08;;;;;;;13.43;12.13;;;-1.90;99.90;;;-1.29;66.95;98873.56;5211585;28;20197;-57
2021/03/07 00:37:41;;;;;;;13.70;12.50;;;-1.90;99.90;;;-1.31;66.92;98875.00;5205366;28;20343;-57
2021/03/07 00:40:14;;;;;;;14.63;13.13;;;-1.90;99.90;;;-1.23;65.34;98878.41;5216224;28;20213;-56
2021/03/07 00:42:48;;;;;;;12.27;11.10;;;-1.90;99.90;;;-1.28;66.84;98882.00;5224111;28;20567;-55
2021/03/07 00:45:21;;;;;;;14.80;13.30;;;-1.90;99.90;;;-1.31;66.46;98874.13;5205613;28;20212;-55
2021/03/07 00:47:53;;;;;;;14.23;12.77;;;-2.00;99.90;;;-1.32;65.67;98877.31;5212469;28;20197;-56
2021/03/07 00:50:27;;;;;;;14.47;13.07;;;-2.00;99.90;;;-1.32;66.71;98877.31;5226030;28;20200;-58
2021/03/07 00:52:59;;;;;;;14.03;12.63;;;-2.00;99.90;;;-1.26;67.39;98870.53;5207381;28;20221;-55
2021/03/07 00:55:31;;;;;;;14.07;12.77;;;-2.00;99.90;;;-1.28;67.09;98876.97;5217960;28;20207;-58
2021/03/07 00:58:03;;;;;;;14.17;12.77;;;-2.00;99.90;;;-1.29;67.26;98872.66;5222625;28;20197;-58
2021/03/07 01:00:35;;;;;;;13.33;12.03;;;-2.00;99.90;;;-1.39;66.72;98871.59;5212503;28;20235;-58
2021/03/07 01:03:07;;;;;;;14.03;12.63;;;-2.10;99.90;;;-1.32;66.98;98870.69;5223870;28;20225;-58
2021/03/07 01:05:42;;;;;;;15.33;13.83;;;-2.00;99.90;;;-1.37;66.51;98865.16;5209116;28;20292;-59
2021/03/07 01:08:14;;;;;;;14.83;13.33;;;-2.00;99.90;;;-1.36;67.48;98864.41;5210477;28;20201;-57
2021/03/07 01:10:46;;;;;;;14.10;12.60;;;-2.00;99.90;;;-1.42;67.85;98871.22;5224661;28;20283;-59
2021/03/07 01:13:19;;;;;;;15.90;12.97;;;-2.10;99.90;;;-1.42;67.67;98866.19;5227968;28;20590;-58
2021/03/07 01:15:52;;;;;;;16.20;13.87;;;-2.20;99.90;;;-1.41;66.96;98862.97;5220019;28;20229;-58
2021/03/07 01:18:25;;;;;;;13.73;12.43;;;-2.10;99.90;;;-1.34;66.57;98863.69;5210799;28;20197;-60
2021/03/07 01:20:58;;;;;;;14.67;13.27;;;-2.10;99.90;;;-1.39;67.57;98861.56;5229491;28;20217;-57
2021/03/07 01:23:34;;;;;;;12.40;11.27;;;-2.20;99.90;;;-1.46;66.79;98856.53;5227015;28;20311;-58
2021/03/07 01:26:06;;;;;;;14.47;13.07;;;-2.30;99.90;;;-1.46;66.86;98851.53;5228806;28;20211;-57
2021/03/07 01:28:38;;;;;;;15.93;12.90;;;-2.20;99.90;;;-1.60;68.14;98849.00;5227296;28;20196;-58
2021/03/07 01:31:10;;;;;;;14.97;13.20;;;-2.30;99.90;;;-1.56;68.42;98836.09;5211448;28;20190;-58
2021/03/07 01:33:42;;;;;;;12.40;11.17;;;-2.30;99.90;;;-1.50;67.31;98840.94;5229307;28;20228;-58
2021/03/07 01:36:15;;;;;;;13.03;11.77;;;-2.40;99.90;;;-1.50;67.60;98826.78;5227337;28;20197;-58
2021/03/07 01:38:47;;;;;;;12.63;11.40;;;-2.40;99.90;;;-1.57;66.63;98829.31;5208823;28;20623;-57
2021/03/07 01:41:19;;;;;;;12.00;10.90;;;-2.60;99.90;;;-1.60;67.53;98823.94;5217779;28;20595;-58
2021/03/07 01:43:51;;;;;;;12.97;11.47;;;-2.60;99.90;;;-1.69;68.05;98817.78;5208091;28;20725;-57
2021/03/07 01:46:23;;;;;;;12.57;11.37;;;-2.70;99.90;;;-1.84;67.79;98811.84;5216471;28;20185;-58
2021/03/07 01:48:56;;;;;;;12.03;10.90;;;-2.70;99.90;;;-1.82;68.78;98806.31;5214595;28;20285;-60
2021/03/07 01:51:29;;;;;;;13.50;12.30;;;-2.60;99.90;;;-1.86;68.44;98803.25;5188156;28;20230;-58
2021/03/07 01:54:01;;;;;;;12.67;11.47;;;-2.60;99.90;;;-1.88;67.72;98797.19;5213586;28;20217;-58
2021/03/07 01:56:33;;;;;;;12.97;11.67;;;-2.60;99.90;;;-1.91;68.03;98792.69;5217979;28;20198;-57
2021/03/07 01:59:06;;;;;;;12.27;11.13;;;-2.70;99.90;;;-1.92;69.13;98785.88;5209615;28;20194;-57
2021/03/07 02:01:38;;;;;;;13.33;12.03;;;-2.70;99.90;;;-2.12;68.62;98780.09;5213878;28;20193;-60
2021/03/07 02:04:10;;;;;;;13.67;12.23;;;-2.80;99.90;;;-2.20;69.53;98764.19;5212617;28;20236;-59
2021/03/07 02:06:44;;;;;;;12.57;11.47;;;-2.80;99.90;;;-2.17;68.07;98753.63;5217626;28;20201;-61
2021/03/07 02:09:17;;;;;;;14.00;12.53;;;-2.80;99.90;;;-2.19;68.00;98747.53;5209386;28;20201;-57
2021/03/07 02:11:50;;;;;;;13.30;11.90;;;-2.80;99.90;;;-2.24;68.70;98759.50;5208387;28;20202;-57
2021/03/07 02:14:24;;;;;;;13.73;12.43;;;-2.90;99.90;;;-2.24;69.73;98756.09;5211937;28;20200;-58
2021/03/07 02:16:57;;;;;;;12.87;11.67;;;-2.90;99.90;;;-2.21;69.03;98756.47;5228417;28;20197;-60
2021/03/07 02:19:33;;;;;;;13.30;11.93;;;-2.80;99.90;;;-2.09;68.83;98745.41;5224634;28;20217;-57
2021/03/07 02:22:12;;;;;;;13.60;12.30;;;-2.80;99.90;;;-2.22;69.31;98753.06;5209344;28;20221;-56
2021/03/07 02:24:45;;;;;;;12.97;11.77;;;-2.90;99.90;;;-2.21;69.30;98751.47;5217196;28;20289;-59
2021/03/07 02:27:17;;;;;;;13.23;11.93;;;-2.80;99.90;;;-2.15;69.28;98760.59;5226180;28;20198;-57
2021/03/07 02:29:50;;;;;;;13.43;12.07;;;-2.90;99.90;;;-2.12;69.62;98753.47;5213285;28;20194;-57
2021/03/07 02:32:26;;;;;;;12.13;11.10;;;-2.90;99.90;;;-2.09;69.15;98748.84;5206405;28;20705;-57
2021/03/07 02:35:03;;;;;;;12.93;11.73;;;-2.90;99.90;;;-2.16;70.57;98742.91;5196040;28;20325;-58
2021/03/07 02:37:38;;;;;;;13.07;11.77;;;-3.00;99.90;;;-2.18;69.26;98746.81;5207271;28;20684;-61
2021/03/07 02:40:14;;;;;;;12.67;11.47;;;-3.00;99.90;;;-2.05;69.28;98745.97;5208591;28;20221;-58
2021/03/07 02:42:47;;;;;;;12.80;11.47;;;-3.00;99.90;;;-2.16;70.34;98742.91;5186842;28;20253;-59
2021/03/07 02:45:23;;;;;;;13.10;11.73;;;-3.10;99.90;;;-2.23;70.75;98737.84;5186909;28;20689;-61
2021/03/07 02:47:56;;;;;;;12.37;11.17;;;-3.10;99.90;;;-2.25;69.82;98740.19;5203408;28;20208;-59
2021/03/07 02:50:31;;;;;;;12.73;11.60;;;-3.10;99.90;;;-2.28;70.05;98738.22;5207478;28;20194;-59
2021/03/07 02:53:06;;;;;;;13.17;11.93;;;-3.20;99.90;;;-2.35;71.08;98734.78;5206964;28;20222;-58
2021/03/07 02:55:41;;;;;;;12.60;11.30;;;-3.20;99.90;;;-2.50;70.08;98729.72;5223351;28;20197;-60
2021/03/07 02:58:16;;;;;;;13.00;11.60;;;-3.30;99.90;;;-2.53;70.80;98728.47;5219224;28;20680;-57
2021/03/07 03:00:53;;;;;;;13.23;12.03;;;-3.40;99.90;;;-2.69;70.73;98725.69;5207166;28;20221;-58
2021/03/07 03:03:31;;;;;;;12.97;11.57;;;-3.40;99.90;;;-2.68;70.92;98722.50;5226759;28;20228;-61
2021/03/07 03:06:05;;;;;;;12.00;10.80;;;-3.50;99.90;;;-2.65;71.72;98719.47;5223378;28;20303;-59
2021/03/07 03:08:40;;;;;;;12.20;11.00;;;-3.30;99.90;;;-2.60;70.99;98725.94;5208005;28;20206;-58
2021/03/07 03:11:14;;;;;;;12.17;11.07;;;-3.30;99.90;;;-2.43;70.53;98728.88;5211679;28;20200;-60
2021/03/07 03:13:49;;;;;;;10.90;9.90;;;-3.30;99.90;;;-2.48;69.65;98724.03;5206531;28;20801;-58
2021/03/07 03:16:24;;;;;;;11.13;10.03;;;-3.30;99.90;;;-2.42;69.73;98718.13;5214063;28;20200;-57
2021/03/07 03:19:00;;;;;;;12.30;10.40;;;-3.30;99.90;;;-2.47;70.52;98721.69;5227510;28;20215;-59
2021/03/07 03:21:32;;;;;;;11.77;10.67;;;-3.40;99.90;;;-2.53;69.72;98716.84;5219651;28;20225;-58
2021/03/07 03:24:07;;;;;;;12.80;10.70;;;-3.50;99.90;;;-2.65;70.44;98714.47;5214318;28;20227;-56
2021/03/07 03:26:40;;;;;;;11.77;10.63;;;-3.50;99.90;;;-2.99;70.12;98716.25;5212482;28;20194;-58
2021/03/07 03:29:13;;;;;;;11.60;10.50;;;-3.80;99.90;;;-2.81;70.52;98712.59;5206594;28;20198;-55
2021/03/07 03:31:45;;;;;;;11.37;10.37;;;-3.70;99.90;;;-2.65;69.66;98704.47;5206958;28;20221;-60
2021/03/07 03:34:17;;;;;;;11.03;10.03;;;-3.70;99.90;;;-2.67;68.92;98708.38;5186109;28;20725;-60
2021/03/07 03:36:49;;;;;;;11.37;10.33;;;-3.70;99.90;;;-2.72;69.32;98698.72;5185937;28;20214;-59
2021/03/07 03:39:24;;;;;;;11.97;10.87;;;-3.70;99.90;;;-2.84;70.36;98702.22;5185945;28;20208;-57
2021/03/07 03:42:02;;;;;;;11.23;10.13;;;-3.60;99.90;;;-2.99;70.82;98706.25;5203048;28;20217;-57
2021/03/07 03:44:39;;;;;;;12.30;11.03;;;-3.60;99.90;;;-3.05;70.87;98704.63;5206464;28;20210;-61
2021/03/07 03:47:13;;;;;;;11.80;10.60;;;-3.70;99.90;;;-2.99;71.73;98695.38;5216267;28;20200;-59
2021/03/07 03:49:53;;;;;;;11.13;10.07;;;-3.60;99.90;;;-2.93;71.58;98696.13;5226692;28;20208;-59
2021/03/07 03:52:28;;;;;;;11.40;10.27;;;-3.50;99.90;;;-2.99;70.86;98690.38;5226824;28;20221;-57
2021/03/07 03:55:05;;;;;;;12.07;10.87;;;-3.60;99.90;;;-3.11;71.11;98698.88;5226551;28;20197;-55
2021/03/07 03:57:39;;;;;;;12.47;11.20;;;-3.70;99.90;;;-3.17;71.16;98697.41;5226973;28;20204;-57
2021/03/07 04:00:17;;;;;;;11.33;10.33;;;-3.70;99.90;;;-3.21;71.89;98692.72;5226778;28;20604;-61
2021/03/07 04:02:50;;;;;;;12.27;10.50;;;-3.80;99.90;;;-3.21;71.90;98692.72;5223812;28;20227;-56
2021/03/07 04:05:27;;;;;;;12.00;10.73;;;-3.80;99.90;;;-3.22;71.81;98690.06;5226206;28;20207;-55
2021/03/07 04:08:00;;;;;;;12.10;10.83;;;-3.80;99.90;;;-3.23;72.17;98694.16;5226357;28;20212;-59
2021/03/07 04:10:32;;;;;;;11.77;10.70;;;-3.80;99.90;;;-3.30;72.14;98688.22;5224968;28;20665;-60
2021/03/07 04:13:05;;;;;;;12.27;10.90;;;-3.80;99.90;;;-3.29;71.82;98692.50;5226418;28;20229;-60
2021/03/07 04:15:39;;;;;;;11.77;10.57;;;-3.80;99.90;;;-3.20;72.25;98689.53;5226295;28;20201;-58
2021/03/07 04:18:16;;;;;;;12.17;10.97;;;-3.70;99.90;;;-3.13;72.28;98697.78;5222841;28;20192;-56
2021/03/07 04:20:49;;;;;;;11.93;10.63;;;-3.70;99.90;;;-3.01;72.24;98696.78;5226281;28;20227;-57
2021/03/07 04:23:21;;;;;;;12.77;11.57;;;-3.60;99.90;;;-3.04;72.26;98693.91;5226148;28;20225;-59
2021/03/07 04:25:53;;;;;;;12.60;11.30;;;-3.60;99.90;;;-3.08;72.26;98694.25;5214934;28;20193;-59
2021/03/07 04:28:28;;;;;;;13.30;11.90;;;-3.70;99.90;;;-3.09;71.30;98693.38;5226108;28;20224;-57
2021/03/07 04:31:00;;;;;;;14.13;12.43;;;-3.70;99.90;;;-3.08;72.01;98694.25;5207339;28;20194;-57
2021/03/07 04:33:32;;;;;;;12.20;11.10;;;-3.70;99.90;;;-3.14;71.45;98693.50;5207427;28;20218;-58
2021/03/07 04:36:05;;;;;;;12.93;11.67;;;-3.80;99.90;;;-3.18;71.66;98688.13;5215173;28;20200;-55
2021/03/07 04:38:37;;;;;;;12.80;11.60;;;-3.70;99.90;;;-3.23;72.15;98680.78;5204604;28;20202;-57
2021/03/07 04:41:09;;;;;;;12.37;11.03;;;-3.80;99.90;;;-3.23;71.92;98684.16;5215640;28;20783;-62
2021/03/07 04:43:50;;;;;;;12.20;11.00;;;-3.70;99.90;;;-3.17;71.87;98684.03;5225031;28;20227;-62
2021/03/07 04:46:24;;;;;;;12.17;11.07;;;-3.80;99.90;;;-3.13;72.18;98673.69;5225824;28;20207;-61
2021/03/07 04:48:57;;;;;;;14.30;12.03;;;-3.70;99.90;;;-3.20;71.70;98674.53;5225852;28;20581;-62
2021/03/07 04:51:29;;;;;;;12.07;10.87;;;-3.70;99.90;;;-3.13;71.89;98670.28;5225714;28;20197;-61
2021/03/07 04:54:01;;;;;;;11.93;10.83;;;-3.70;99.90;;;-3.08;71.96;98662.63;5222005;28;20859;-62
2021/03/07 04:56:33;;;;;;;12.63;11.43;;;-3.70;99.90;;;-3.12;71.85;98657.97;5205505;28;20658;-62
2021/03/07 04:59:06;;;;;;;11.63;10.50;;;-3.70;99.90;;;-3.09;72.07;98649.94;5205467;28;20586;-62
2021/03/07 05:01:38;;;;;;;12.53;10.80;;;-3.70;99.90;;;-3.14;71.96;98648.50;5204582;28;20214;-61
2021/03/07 05:04:11;;;;;;;12.47;10.53;;;-3.70;99.90;;;-3.22;71.66;98650.06;5204128;28;20198;-62
2021/03/07 05:06:43;;;;;;;12.77;11.47;;;-3.80;99.90;;;-3.18;71.88;98655.66;5204865;28;20304;-62
2021/03/07 05:09:15;;;;;;;12.33;11.20;;;-3.80;99.90;;;-3.23;72.04;98649.19;5204480;28;20723;-62
2021/03/07 05:11:47;;;;;;;15.30;11.30;;;-3.80;99.90;;;-3.24;72.20;98647.38;5205934;28;20289;-61
2021/03/07 05:14:20;;;;;;;13.40;12.17;;;-3.80;99.90;;;-3.31;72.14;98654.84;5197267;28;20193;-62
2021/03/07 05:16:52;;;;;;;12.07;10.93;;;-3.90;99.90;;;-3.36;71.81;98647.50;5200139;28;20217;-62
2021/03/07 05:19:25;;;;;;;12.63;11.33;;;-3.90;99.90;;;-3.32;72.43;98650.56;5205260;28;20589;-62
2021/03/07 05:21:57;;;;;;;12.83;11.63;;;-3.90;99.90;;;-3.14;72.63;98661.00;5214143;28;20609;-62
2021/03/07 05:24:29;;;;;;;13.13;11.77;;;-3.80;99.90;;;-3.18;71.77;98657.22;5214942;28;20190;-62
2021/03/07 05:27:06;;;;;;;13.10;11.80;;;-3.80;99.90;;;-3.20;71.98;98653.66;5204189;28;20207;-62
2021/03/07 05:29:39;;;;;;;12.73;11.53;;;-3.80;99.90;;;-3.27;71.36;98654.50;5205033;28;20212;-62
2021/03/07 05:32:11;;;;;;;12.60;11.47;;;-3.90;99.90;;;-3.44;71.92;98646.53;5191642;28;20288;-61
2021/03/07 05:34:44;;;;;;;12.20;10.77;;;-4.00;99.90;;;-3.34;72.02;98641.97;5201981;28;20252;-61
2021/03/07 05:37:16;;;;;;;11.40;10.30;;;-4.00;99.90;;;-3.43;71.86;98645.84;5204098;28;20671;-62
2021/03/07 05:39:48;;;;;;;11.50;10.40;;;-4.00;99.90;;;-3.39;72.41;98640.50;5205213;28;20309;-62
2021/03/07 05:42:20;;;;;;;11.23;9.97;;;-4.00;99.90;;;-3.38;72.14;98637.28;5204895;28;20573;-62
2021/03/07 05:44:53;;;;;;;11.23;10.27;;;-4.00;99.90;;;-3.38;72.16;98637.28;5204531;28;20208;-62
2021/03/07 05:47:25;;;;;;;11.57;10.50;;;-4.00;99.90;;;-3.38;72.19;98628.91;5191058;28;20195;-61
2021/03/07 05:49:58;;;;;;;11.27;10.10;;;-4.00;99.90;;;-3.43;71.97;98630.84;5198320;28;20205;-62
2021/03/07 05:52:30;;;;;;;10.70;9.70;;;-4.00;99.90;;;-3.46;72.34;98623.00;5207627;28;20233;-62
2021/03/07 05:55:04;;;;;;;11.80;10.60;;;-4.00;99.90;;;-3.42;72.57;98615.16;5208417;28;20203;-62
2021/03/07 05:57:37;;;;;;;12.00;10.90;;;-3.90;99.90;;;-3.51;72.22;98614.03;5208070;28;20675;-61
2021/03/07 06:00:12;;;;;;;12.33;10.77;;;-4.00;99.90;;;-3.53;72.41;98610.44;5216832;28;20224;-62
2021/03/07 06:02:44;;;;;;;12.20;10.97;;;-4.10;99.90;;;-3.53;72.46;98610.44;5204050;28;20732;-61
2021/03/07 06:05:17;;;;;;;11.00;9.87;;;-4.10;99.90;;;-3.47;72.20;98609.56;5211607;28;20248;-62
2021/03/07 06:07:49;;;;;;;11.10;10.00;;;-4.00;99.90;;;-3.42;72.03;98606.03;5208306;28;20296;-62
2021/03/07 06:10:25;;;;;;;11.37;10.17;;;-4.00;99.90;;;-3.34;72.02;98598.59;5208082;28;20711;-62
2021/03/07 06:13:00;;;;;;;11.23;10.23;;;-4.00;99.90;;;-3.39;71.94;98603.03;5208949;28;20221;-62
2021/03/07 06:16:07;;;;;;;10.60;9.60;;;-4.00;99.90;;;-3.30;72.19;98594.13;5194895;28;20221;-63
2021/03/07 06:18:41;;;;;;;11.60;10.40;;;-3.80;99.90;;;-3.20;72.63;98599.56;5198521;28;20208;-63
2021/03/07 06:21:32;;;;;;;10.87;9.87;;;-3.80;99.90;;;-3.02;72.40;98597.50;5208301;28;20224;-62
2021/03/07 06:24:05;;;;;;;10.83;9.83;;;-3.70;99.90;;;-2.89;71.70;98600.75;5209853;28;20316;-63
2021/03/07 06:26:37;;;;;;;11.47;10.33;;;-3.50;99.90;;;-2.66;71.42;98590.09;5215361;28;20208;-62
2021/03/07 06:29:11;;;;;;;11.53;10.47;;;-3.50;99.90;;;-2.48;69.84;98599.78;5204692;28;20205;-63
2021/03/07 06:31:44;;;;;;;10.90;9.83;;;-3.40;99.90;;;-2.24;68.75;98593.38;5199404;28;20203;-62
2021/03/07 06:34:16;;;;;;;11.70;10.13;;;-3.40;99.90;;;-1.92;68.35;98583.00;5206210;28;20203;-62
2021/03/07 06:36:48;;;;;;;11.20;10.13;;;-3.10;99.90;;;-1.65;68.00;98594.44;5207531;28;20214;-62
2021/03/07 06:39:28;;;;;;;11.20;10.27;;;-2.80;99.90;;;-1.53;67.82;98585.81;5188721;28;20586;-62
2021/03/07 06:42:05;;;;;;;17.03;13.27;;;-2.70;99.90;;;-1.23;65.79;98588.44;5224016;28;20271;-62
2021/03/07 06:44:50;;;;;;;15.30;12.70;;;-2.50;99.90;;;-0.98;65.61;98579.53;5216709;28;20193;-63
2021/03/07 06:47:23;;;;;;;10.77;9.73;;;-2.30;99.90;;;-0.68;65.90;98573.69;5213301;28;20570;-62
2021/03/07 06:50:14;;;;;;;11.20;10.00;;;-2.00;99.90;;;0.02;63.29;98587.19;5217006;28;20877;-62
2021/03/07 06:52:52;;;;;;;10.80;9.80;;;-1.80;99.90;;;0.33;60.60;98582.22;5204383;28;20516;-63
2021/03/07 06:55:26;;;;;;;11.37;10.27;;;-1.70;99.90;;;0.14;61.49;98591.00;5207051;28;20582;-63
2021/03/07 06:58:15;;;;;;;14.80;13.27;;;-1.70;99.90;;;0.47;59.34;98582.81;5212713;28;20193;-63
2021/03/07 07:00:47;;;;;;;13.47;12.17;;;-1.20;99.90;;;0.37;59.87;98581.84;5205217;28;20230;-62
2021/03/07 07:03:20;;;;;;;12.90;11.73;;;-1.20;99.90;;;0.45;59.90;98581.03;5203882;28;20222;-61
2021/03/07 07:05:55;;;;;;;12.23;11.13;;;-1.20;99.90;;;0.56;60.13;98578.78;5206546;28;20275;-63
2021/03/07 07:08:44;;;;;;;12.00;11.00;;;-1.00;99.90;;;0.90;59.83;98579.09;5206067;28;20198;-62
2021/03/07 07:11:16;;;;;;;12.13;11.13;;;-0.80;99.90;;;0.86;59.86;98571.97;5207965;28;20662;-63
2021/03/07 07:13:51;;;;;;;12.60;11.37;;;-0.50;99.90;;;1.07;59.59;98563.25;5205992;28;20701;-63
2021/03/07 07:16:38;;;;;;;11.43;10.43;;;-0.20;99.90;;;1.31;59.99;98567.44;5201451;28;20199;-63
2021/03/07 07:19:11;;;;;;;10.80;9.90;;;0.10;99.90;;;1.65;58.28;98568.38;5205909;28;20197;-62
2021/03/07 07:21:43;;;;;;;10.57;9.57;;;0.20;99.90;;;1.78;57.08;98565.50;5226551;28;20226;-62
2021/03/07 07:24:15;;;;;;;9.93;9.13;;;0.20;99.90;;;1.82;57.33;98566.72;5205551;28;20221;-62
2021/03/07 07:26:48;;;;;;;10.37;9.47;;;0.30;99.90;;;1.94;56.98;98565.44;5206516;28;20209;-62
2021/03/07 07:29:20;;;;;;;10.30;9.40;;;0.50;99.90;;;1.86;56.23;98561.22;5206123;28;20199;-61
2021/03/07 07:32:01;;;;;;;10.47;9.57;;;0.70;99.90;;;2.00;56.97;98558.47;5205700;28;20291;-64
2021/03/07 07:34:38;;;;;;;10.27;9.37;;;0.80;99.90;;;2.32;56.21;98560.81;5219650;28;20681;-63
2021/03/07 07:37:20;;;;;;;10.20;9.30;;;1.20;99.90;;;2.51;55.23;98551.81;5227457;28;20209;-61
2021/03/07 07:39:53;;;;;;;10.57;9.57;;;1.50;99.90;;;2.82;56.13;98549.81;5212785;28;20211;-61
2021/03/07 07:42:28;;;;;;;11.73;10.73;;;1.70;99.90;;;2.91;54.41;98555.75;5205160;28;20230;-62
2021/03/07 07:45:19;;;;;;;11.43;10.43;;;1.60;99.80;;;2.94;53.55;98551.88;5206108;28;20715;-63
2021/03/07 07:47:53;;;;;;;11.13;10.23;;;1.70;99.50;;;3.04;54.28;98546.09;5187865;28;20199;-62
2021/03/07 07:50:38;;;;;;;10.60;9.70;;;1.80;99.70;;;2.86;54.09;98542.69;5210876;28;20279;-60
2021/03/07 07:53:37;;;;;;;9.83;9.03;;;1.70;99.50;;;3.19;53.63;98533.16;5226447;28;20307;-63
2021/03/07 07:56:33;;;;;;;9.67;8.87;;;2.00;99.50;;;3.37;52.86;98534.91;5185174;28;20241;-63
2021/03/07 07:59:06;;;;;;;9.80;8.90;;;2.20;99.20;;;3.59;52.98;98533.69;5196707;28;20205;-64
2021/03/07 08:01:56;;;;;;;9.50;8.60;;;2.20;99.20;;;3.77;52.19;98542.09;5199965;28;20222;-64
2021/03/07 08:04:39;;;;;;;9.93;9.03;;;2.40;98.60;;;3.89;51.86;98531.38;5185896;28;20204;-63
2021/03/07 08:07:12;;;;;;;9.60;8.80;;;2.60;98.50;;;3.97;52.16;98532.97;5193903;28;20288;-63
2021/03/07 08:09:48;;;;;;;9.17;8.47;;;2.70;98.20;;;4.08;52.12;98539.94;5202888;28;20669;-63
2021/03/07 08:12:51;;;;;;;9.73;8.90;;;2.80;98.10;;;4.19;51.98;98530.81;5206776;28;20225;-64
2021/03/07 08:15:43;;;;;;;8.97;8.20;;;2.90;98.10;;;4.36;51.90;98532.34;5216043;28;20193;-63
2021/03/07 08:18:18;;;;;;;9.33;8.47;;;3.10;98.40;;;4.56;50.95;98530.00;5211420;28;20201;-65
2021/03/07 08:21:06;;;;;;;9.43;8.63;;;3.50;97.70;;;4.50;51.78;98520.22;5206347;28;20233;-66
2021/03/07 08:24:01;;;;;;;9.70;8.90;;;3.40;97.90;;;4.82;51.51;98517.16;5205844;28;20752;-63
2021/03/07 08:26:57;;;;;;;9.60;8.80;;;3.60;97.90;;;4.91;51.67;98515.44;5185143;28;20202;-67
2021/03/07 08:29:47;;;;;;;9.80;8.90;;;3.70;98.20;;;5.09;51.25;98506.03;5199870;28;20232;-64
2021/03/07 08:32:35;;;;;;;9.17;8.37;;;3.80;97.80;;;5.33;51.21;98512.41;5210736;28;20216;-65
2021/03/07 08:35:18;;;;;;;9.70;8.90;;;4.10;97.80;;;5.39;50.89;98507.88;5200705;28;20264;-64
2021/03/07 08:38:11;;;;;;;9.80;9.00;;;4.20;97.70;;;5.35;50.57;98495.69;5205128;28;20205;-64
2021/03/07 08:40:45;;;;;;;9.03;8.23;;;4.10;97.60;;;5.46;51.31;98505.84;5207736;28;20222;-64
2021/03/07 08:43:46;;;;;;;9.63;8.83;;;4.30;97.80;;;5.64;50.26;98499.88;5203359;28;20226;-63
2021/03/07 08:46:21;;;;;;;10.00;9.10;;;4.60;96.90;;;5.88;49.63;98501.06;5203402;28;20921;-64
2021/03/07 08:48:56;;;;;;;9.57;8.77;;;4.80;96.70;;;6.11;49.18;98497.09;5195661;28;20328;-63
2021/03/07 08:51:32;;;;;;;10.43;9.50;;;5.10;96.40;;;6.19;48.77;98489.38;5202402;28;20215;-64
2021/03/07 08:54:06;;;;;;;9.67;8.87;;;5.20;96.10;;;6.52;48.26;98477.69;5196008;28;20308;-64
2021/03/07 08:56:42;;;;;;;9.47;8.57;;;5.40;95.80;;;6.65;48.39;98471.97;5220929;28;20204;-64
2021/03/07 08:59:15;;;;;;;9.30;8.43;;;5.80;95.70;;;6.86;47.51;98475.38;5195811;28;20573;-64
2021/03/07 09:01:50;;;;;;;9.63;8.73;;;6.00;94.50;;;6.95;46.86;98484.66;5200750;28;20592;-64
2021/03/07 09:04:32;;;;;;;8.83;8.13;;;6.10;94.20;;;7.05;45.62;98480.31;5182980;28;20201;-64
2021/03/07 09:07:04;;;;;;;8.90;8.10;;;6.20;93.10;;;7.19;44.84;98475.56;5211679;28;20194;-64
2021/03/07 09:09:42;;;;;;;8.53;7.70;;;6.30;92.80;;;7.44;45.91;98472.44;5203293;28;20681;-63
2021/03/07 09:12:17;;;;;;;8.63;7.83;;;6.70;93.00;;;7.58;44.85;98469.31;5192213;28;20214;-62
2021/03/07 09:14:49;;;;;;;8.70;7.90;;;6.80;92.50;;;7.82;44.95;98461.81;5182506;28;20260;-64
2021/03/07 09:17:22;;;;;;;9.00;8.20;;;7.10;92.30;;;7.95;44.25;98464.50;5199424;28;20194;-65
2021/03/07 09:19:55;;;;;;;8.90;8.10;;;7.20;91.50;;;8.04;43.42;98460.13;5205992;28;20202;-64
2021/03/07 09:22:28;;;;;;;8.60;7.70;;;7.00;91.70;;;8.20;43.47;98457.09;5203157;28;20236;-63
2021/03/07 09:25:04;;;;;;;8.60;7.87;;;7.30;91.30;;;8.41;42.75;98446.75;5212228;28;20196;-63
2021/03/07 09:27:40;;;;;;;8.50;7.83;;;7.50;91.00;;;8.71;42.33;98453.25;5208489;28;20208;-63
2021/03/07 09:30:15;;;;;;;9.00;8.30;;;7.70;91.00;;;8.71;42.54;98443.06;5209932;28;20669;-62
2021/03/07 09:32:50;;;;;;;8.03;7.43;;;7.80;90.80;;;8.76;42.39;98446.84;5220561;28;20219;-61
2021/03/07 09:35:25;;;;;;;8.90;8.20;;;7.80;90.70;;;8.86;42.07;98439.09;5218389;28;20331;-63
2021/03/07 09:38:03;;;;;;;8.87;8.17;;;7.80;90.40;;;8.92;41.85;98429.31;5227290;28;20342;-62
2021/03/07 09:40:37;;;;;;;9.13;8.43;;;7.90;90.30;;;9.08;41.72;98433.00;5226199;28;20189;-62
2021/03/07 09:43:14;;;;;;;9.00;8.20;;;7.90;90.20;;;8.97;41.03;98432.22;5196680;28;20261;-63
2021/03/07 09:45:48;;;;;;;8.93;8.13;;;8.00;90.00;;;9.06;42.51;98424.34;5206421;28;20199;-63
2021/03/07 09:48:27;;;;;;;9.03;8.23;;;8.10;90.80;;;9.20;41.82;98421.13;5215627;28;20544;-63
2021/03/07 09:51:03;;;;;;;9.00;8.30;;;8.40;90.30;;;9.54;41.36;98423.50;5207459;28;20201;-63
2021/03/07 09:53:37;;;;;;;9.50;8.60;;;8.50;90.00;;;9.53;40.88;98417.53;5214552;28;20213;-64
2021/03/07 09:56:25;;;;;;;9.47;8.57;;;8.50;89.20;;;9.55;40.09;98407.41;5217604;28;20504;-62
2021/03/07 09:59:10;;;;;;;10.00;9.00;;;8.40;89.10;;;9.67;40.92;98415.91;5222509;28;20201;-63
2021/03/07 10:01:45;;;;;;;9.93;9.03;;;8.50;89.60;;;9.74;39.88;98407.91;5193088;28;20217;-63
2021/03/07 10:04:37;;;;;;;10.80;9.80;;;8.70;89.10;;;9.70;41.27;98405.94;5219699;28;20216;-63
2021/03/07 10:07:25;;;;;;;11.00;10.10;;;8.80;89.20;;;9.83;40.78;98403.44;5210157;28;20201;-63
2021/03/07 10:09:59;;;;;;;10.13;9.23;;;8.60;90.00;;;9.70;41.02;98400.84;5221844;28;20207;-63
2021/03/07 10:12:43;;;;;;;10.37;9.50;;;8.60;89.90;;;9.83;41.28;98397.44;5208004;28;20220;-66
2021/03/07 10:15:27;;;;;;;11.20;10.27;;;8.80;89.90;;;9.82;42.09;98393.13;5211702;28;20200;-65
2021/03/07 10:18:02;;;;;;;10.77;9.80;;;8.80;90.50;;;9.73;41.98;98387.38;5222888;28;20197;-65
2021/03/07 10:20:36;;;;;;;11.13;10.13;;;8.90;90.30;;;9.60;41.57;98390.75;5220447;28;20204;-62
2021/03/07 10:23:10;;;;;;;11.50;10.50;;;8.80;90.10;;;9.86;41.64;98393.44;5216816;28;20212;-62
2021/03/07 10:25:46;;;;;;;11.43;10.23;;;9.00;90.10;;;10.10;40.60;98378.00;5217872;28;20198;-61
2021/03/07 10:28:36;;;;;;;10.63;9.63;;;9.00;89.70;;;10.26;40.46;98380.78;5212420;28;20190;-61
2021/03/07 10:31:12;;;;;;;11.17;10.17;;;9.00;90.20;;;10.35;40.25;98375.44;5216368;28;20189;-62
2021/03/07 10:33:44;;;;;;;11.37;10.33;;;9.40;89.00;;;10.46;40.97;98377.03;5192504;28;20244;-62
2021/03/07 10:36:19;;;;;;;10.87;9.87;;;9.60;89.20;;;10.60;39.63;98376.25;5216036;28;20297;-63
2021/03/07 10:39:08;;;;;;;11.67;10.60;;;9.50;88.50;;;10.50;40.89;98370.44;5222855;28;20583;-62
2021/03/07 10:44:25;;;;;;;11.80;10.80;;;9.50;90.50;;;10.58;40.61;98374.38;5159892;28;20457;-59
2021/03/07 10:47:17;;;;;;;12.20;11.10;;;9.50;89.70;;;10.52;41.88;98369.75;5163521;28;20207;-60
2021/03/07 10:49:51;;;;;;;13.43;12.23;;;9.60;90.10;;;10.67;41.56;98371.53;5164235;28;20203;-60
2021/03/07 10:52:23;;;;;;;12.57;11.33;;;9.70;90.60;;;10.66;41.67;98368.09;5170316;28;20305;-61